Terminal Aerodrome Forecast
Issued by NWS

Home | Current Version | Previous Version | Text Only | Print | Product List | Glossary Off
Versions: 1 2 3 4 5 6 7 8 9 10 11 12 13 14 15 16 17 18 19

000
FTUS42 KMHX 032135 AAC
TAFOAJ
TAF AMD
KOAJ 032135Z 0322/0418 09010KT 6SM BR VCSH OVC020
     FM040000 14010KT 4SM BR VCSH OVC007 WS020/22035KT
     FM040400 22010KT 3SM BR OVC004
     FM041400 23010G15KT P6SM OVC010
      AMD LTD TO CLD VIS AND WIND=

USA.gov is the U.S. government's official web portal to all federal, state and local government web resources and services.